Disclaimer

Please do not use the information listed here in-flight or in-navigation, as they are not provided to us by the airports but are provided by volunteers, so they might be outdated.

Search


Regions


Airport information page

Radio informations:
Tower (TWR) - 130.15 MHz

Airport informations:
Latitude: 67° 49' 19.15" N
Longitude: 020° 20' 12.35" E
Elevation: 1508 feet - 460 meters
Operating hours: Remarks
Operating agency: Civil government, landing fees and diplomatic clearance may be required
Timezone: UTC+1(+2DT) - Last Sunday in March to last Sunday in October
Fuel: Jet A1, without icing nhibitor.

100/130 MIL Spec, low lead, aviation gasoline (BLUE)

Runway information:
03/21 - 8209 x 148 feet< - >2502 x 45 meters

Recent METARs:
ESNQ 151250Z 22006KT CAVOK M14/M15 Q1026
ESNQ 151320Z 22007KT CAVOK M16/M18 Q1026
ESNQ 151350Z 23006KT CAVOK M13/M15 Q1026

Airport on the map: